createdAt,value
2022-08-03T00:01:19.576Z,100.00
2022-08-03T00:03:46.042Z,100.00
2022-08-03T00:06:12.839Z,100.00
2022-08-03T00:08:40.317Z,100.00
2022-08-03T00:11:06.745Z,100.00
2022-08-03T00:13:33.091Z,100.00
2022-08-03T00:15:59.422Z,100.00
2022-08-03T00:18:26.453Z,100.00
2022-08-03T00:20:52.957Z,100.00
2022-08-03T00:23:19.432Z,100.00
2022-08-03T00:25:45.770Z,100.00
2022-08-03T00:28:12.098Z,100.00
2022-08-03T00:30:38.384Z,100.00
2022-08-03T00:33:08.377Z,100.00
2022-08-03T00:35:51.068Z,100.00
2022-08-03T00:38:17.614Z,100.00
2022-08-03T00:40:44.129Z,100.00
2022-08-03T00:43:10.485Z,100.00
2022-08-03T00:45:36.775Z,100.00
2022-08-03T00:48:05.289Z,100.00
2022-08-03T00:50:31.620Z,100.00
2022-08-03T00:52:58.000Z,100.00
2022-08-03T00:55:24.344Z,100.00
2022-08-03T00:57:50.671Z,100.00
2022-08-03T01:00:16.995Z,100.00
2022-08-03T01:02:43.442Z,100.00
2022-08-03T01:05:09.679Z,100.00
2022-08-03T01:07:36.132Z,100.00
2022-08-03T01:10:02.601Z,100.00
2022-08-03T01:12:28.924Z,100.00
2022-08-03T01:14:55.230Z,100.00
2022-08-03T01:17:21.564Z,100.00
2022-08-03T01:19:47.794Z,100.00
2022-08-03T01:22:14.544Z,100.00
2022-08-03T01:24:41.010Z,100.00
2022-08-03T01:27:07.318Z,100.00
2022-08-03T01:29:33.631Z,100.00
2022-08-03T01:32:53.660Z,100.00
2022-08-03T01:34:46.137Z,100.00
2022-08-03T01:37:12.475Z,100.00
2022-08-03T01:39:38.780Z,100.00
2022-08-03T01:42:05.109Z,100.00
2022-08-03T01:44:34.002Z,100.00
2022-08-03T01:47:00.317Z,100.00
2022-08-03T01:49:26.825Z,100.00
2022-08-03T01:52:03.550Z,100.00
2022-08-03T01:54:31.669Z,100.00
2022-08-03T01:56:57.918Z,100.00
2022-08-03T01:59:24.234Z,100.00
2022-08-03T02:02:15.355Z,100.00
2022-08-03T02:04:37.097Z,100.00
2022-08-03T02:07:03.647Z,100.00
2022-08-03T02:09:30.026Z,100.00
2022-08-03T02:11:56.562Z,100.00
2022-08-03T02:14:22.904Z,100.00
2022-08-03T02:16:49.272Z,100.00
2022-08-03T02:19:15.722Z,100.00
2022-08-03T02:21:55.836Z,100.00
2022-08-03T02:24:26.964Z,100.00
2022-08-03T02:26:53.245Z,100.00
2022-08-03T02:29:19.653Z,100.00
2022-08-03T02:31:46.241Z,100.00
2022-08-03T02:34:12.532Z,100.00
2022-08-03T02:36:38.870Z,100.00
2022-08-03T02:39:05.178Z,100.00
2022-08-03T02:41:31.615Z,100.00
2022-08-03T02:44:07.107Z,100.00
2022-08-03T02:46:33.880Z,100.00
2022-08-03T02:49:00.389Z,100.00
2022-08-03T02:51:46.752Z,100.00
2022-08-03T02:54:13.079Z,100.00
2022-08-03T02:56:39.517Z,100.00
2022-08-03T02:59:05.835Z,100.00
2022-08-03T03:01:32.165Z,100.00
2022-08-03T03:03:58.509Z,100.00
2022-08-03T03:06:24.827Z,100.00
2022-08-03T03:08:59.615Z,100.00
2022-08-03T03:11:26.290Z,100.00
2022-08-03T03:13:52.622Z,100.00
2022-08-03T03:16:19.081Z,100.00
2022-08-03T03:18:45.416Z,100.00
2022-08-03T03:21:11.767Z,100.00
2022-08-03T03:23:38.072Z,100.00
2022-08-03T03:26:04.416Z,100.00
2022-08-03T03:28:31.238Z,100.00
2022-08-03T03:30:57.585Z,100.00
2022-08-03T03:33:23.885Z,100.00
2022-08-03T03:35:51.370Z,100.00
2022-08-03T03:38:17.697Z,100.00
2022-08-03T03:40:44.048Z,100.00
2022-08-03T03:43:10.361Z,100.00
2022-08-03T03:45:36.875Z,100.00
2022-08-03T03:48:03.213Z,100.00
2022-08-03T03:50:29.566Z,100.00
2022-08-03T03:52:56.005Z,100.00
2022-08-03T03:55:22.476Z,100.00
2022-08-03T03:57:48.753Z,100.00
2022-08-03T04:00:15.310Z,100.00
2022-08-03T04:02:41.642Z,100.00
2022-08-03T04:05:08.139Z,100.00
2022-08-03T04:07:34.358Z,100.00
2022-08-03T04:10:01.016Z,100.00
2022-08-03T04:12:49.904Z,100.00
2022-08-03T04:15:17.104Z,100.00
2022-08-03T04:17:43.486Z,100.00
2022-08-03T04:20:09.924Z,100.00
2022-08-03T04:22:36.203Z,100.00
2022-08-03T04:25:02.758Z,100.00
2022-08-03T04:27:29.046Z,100.00
2022-08-03T04:29:55.424Z,100.00
2022-08-03T04:32:21.757Z,100.00
2022-08-03T04:34:48.003Z,100.00
2022-08-03T04:37:14.251Z,100.00
2022-08-03T04:39:40.571Z,100.00
2022-08-03T04:42:08.088Z,100.00
2022-08-03T04:44:35.155Z,100.00
2022-08-03T04:47:01.453Z,100.00
2022-08-03T04:49:27.840Z,100.00
2022-08-03T04:51:54.137Z,100.00
2022-08-03T04:54:20.612Z,100.00
2022-08-03T04:56:46.927Z,100.00
2022-08-03T04:59:13.244Z,100.00
2022-08-03T05:01:39.641Z,100.00
2022-08-03T05:04:06.038Z,100.00
2022-08-03T05:06:32.513Z,100.00
2022-08-03T05:08:58.860Z,100.00
2022-08-03T05:11:25.430Z,100.00
2022-08-03T05:13:51.764Z,100.00
2022-08-03T05:16:18.039Z,100.00
2022-08-03T05:18:44.316Z,100.00
2022-08-03T05:21:10.598Z,100.00
2022-08-03T05:23:36.962Z,100.00
2022-08-03T05:26:03.406Z,100.00
2022-08-03T05:28:29.726Z,100.00
2022-08-03T05:30:56.043Z,100.00
2022-08-03T05:33:22.331Z,100.00
2022-08-03T05:36:01.063Z,100.00
2022-08-03T05:38:34.136Z,100.00
2022-08-03T05:41:20.990Z,100.00
2022-08-03T05:43:47.950Z,100.00
2022-08-03T05:46:14.399Z,100.00
2022-08-03T05:48:40.785Z,100.00
2022-08-03T05:51:07.122Z,100.00
2022-08-03T05:53:33.508Z,100.00
2022-08-03T05:56:03.605Z,100.00
2022-08-03T05:58:41.987Z,100.00
2022-08-03T06:01:08.447Z,100.00
2022-08-03T06:03:34.880Z,100.00
2022-08-03T06:06:01.333Z,98.30
2022-08-03T06:08:27.638Z,98.12
2022-08-03T06:10:53.947Z,95.09
2022-08-03T06:13:20.584Z,87.49
2022-08-03T06:15:47.149Z,89.00
2022-08-03T06:18:13.615Z,86.06
2022-08-03T06:20:40.056Z,81.36
2022-08-03T06:23:06.340Z,83.74
2022-08-03T06:25:33.783Z,80.01
2022-08-03T06:28:00.242Z,80.68
2022-08-03T06:30:26.621Z,79.50
2022-08-03T06:32:52.974Z,79.05
2022-08-03T06:35:19.239Z,78.80
2022-08-03T06:37:45.545Z,77.14
2022-08-03T06:40:13.902Z,75.34
2022-08-03T06:42:40.402Z,73.47
2022-08-03T06:45:06.707Z,74.00
2022-08-03T06:47:32.968Z,71.92
2022-08-03T06:50:12.989Z,70.14
2022-08-03T06:52:43.771Z,70.24
2022-08-03T06:55:10.550Z,67.86
2022-08-03T06:57:37.198Z,69.02
2022-08-03T07:00:09.554Z,67.23
2022-08-03T07:02:38.048Z,66.68
2022-08-03T07:05:05.409Z,65.24
2022-08-03T07:07:31.716Z,64.51
2022-08-03T07:09:58.459Z,62.11
2022-08-03T07:12:25.527Z,63.63
2022-08-03T07:14:53.110Z,64.96
2022-08-03T07:17:20.910Z,65.82
2022-08-03T07:19:47.260Z,65.13
2022-08-03T07:22:13.548Z,61.17
2022-08-03T07:24:40.173Z,63.05
2022-08-03T07:27:06.488Z,59.95
2022-08-03T07:29:34.731Z,59.55
2022-08-03T07:32:01.094Z,62.49
2022-08-03T07:34:27.392Z,63.49
2022-08-03T07:36:53.724Z,62.04
2022-08-03T07:39:20.054Z,61.48
2022-08-03T07:41:46.478Z,61.92
2022-08-03T07:44:12.837Z,60.61
2022-08-03T07:46:39.072Z,60.20
2022-08-03T07:49:05.477Z,60.28
2022-08-03T07:51:31.841Z,59.66
2022-08-03T07:53:58.271Z,60.19
2022-08-03T07:56:24.629Z,58.35
2022-08-03T07:58:50.975Z,59.14
2022-08-03T08:01:17.490Z,57.80
2022-08-03T08:03:53.210Z,56.98
2022-08-03T08:06:19.898Z,54.90
2022-08-03T08:08:46.411Z,55.01
2022-08-03T08:11:12.764Z,53.95
2022-08-03T08:13:39.278Z,53.78
2022-08-03T08:16:05.647Z,54.98
2022-08-03T08:18:32.029Z,55.53
2022-08-03T08:20:58.350Z,54.83
2022-08-03T08:23:42.182Z,55.79
2022-08-03T08:26:10.054Z,52.93
2022-08-03T08:28:36.334Z,52.88
2022-08-03T08:31:02.653Z,52.18
2022-08-03T08:33:42.190Z,51.68
2022-08-03T08:36:15.780Z,50.87
2022-08-03T08:38:42.133Z,51.26
2022-08-03T08:41:08.441Z,51.68
2022-08-03T08:43:34.782Z,53.84
2022-08-03T08:46:01.082Z,51.63
2022-08-03T08:48:27.336Z,48.53
2022-08-03T08:50:53.674Z,48.95
2022-08-03T08:53:26.757Z,46.38
2022-08-03T08:55:58.642Z,46.12
2022-08-03T08:58:26.159Z,46.81
2022-08-03T09:00:52.750Z,48.16
2022-08-03T09:03:22.664Z,47.42
2022-08-03T09:05:56.947Z,47.96
2022-08-03T09:08:23.253Z,47.20
2022-08-03T09:10:49.514Z,45.90
2022-08-03T09:13:15.845Z,47.22
2022-08-03T09:15:42.131Z,45.06
2022-08-03T09:18:26.146Z,46.62
2022-08-03T09:20:56.817Z,45.20
2022-08-03T09:23:51.703Z,47.14
2022-08-03T09:26:09.481Z,44.46
2022-08-03T09:29:00.737Z,46.94
2022-08-03T09:31:21.919Z,45.77
2022-08-03T09:33:48.370Z,46.53
2022-08-03T09:36:14.911Z,44.12
2022-08-03T09:38:41.267Z,45.42
2022-08-03T09:41:07.711Z,44.23
2022-08-03T09:43:34.033Z,43.95
2022-08-03T09:46:00.287Z,44.13
2022-08-03T09:48:26.609Z,43.64
2022-08-03T09:50:58.822Z,44.32
2022-08-03T09:53:38.910Z,43.94
2022-08-03T09:56:35.605Z,43.22
2022-08-03T09:59:02.901Z,42.63
2022-08-03T10:01:29.211Z,40.50
2022-08-03T10:04:04.011Z,41.63
2022-08-03T10:06:30.810Z,41.56
2022-08-03T10:08:57.083Z,42.07
2022-08-03T10:11:23.395Z,41.68
2022-08-03T10:13:49.773Z,39.94
2022-08-03T10:16:22.183Z,39.56
2022-08-03T10:18:51.412Z,41.45
2022-08-03T10:21:17.656Z,42.64
2022-08-03T10:23:44.109Z,40.63
2022-08-03T10:26:10.380Z,40.04
2022-08-03T10:28:40.238Z,39.22
2022-08-03T10:31:09.233Z,40.55
2022-08-03T10:33:49.472Z,39.72
2022-08-03T10:36:18.541Z,40.56
2022-08-03T10:38:44.795Z,42.66
2022-08-03T10:41:11.010Z,40.17
2022-08-03T10:43:37.312Z,39.96
2022-08-03T10:46:03.565Z,40.56
2022-08-03T10:48:29.829Z,41.35
2022-08-03T10:50:56.056Z,39.52
2022-08-03T10:53:22.312Z,40.33
2022-08-03T10:55:48.550Z,40.49
2022-08-03T10:58:14.986Z,40.35
2022-08-03T11:00:57.025Z,40.65
2022-08-03T11:03:23.380Z,38.66
2022-08-03T11:05:49.664Z,39.14
2022-08-03T11:08:15.957Z,40.01
2022-08-03T11:10:42.213Z,39.60
2022-08-03T11:13:08.434Z,39.34
2022-08-03T11:15:34.694Z,40.55
2022-08-03T11:18:00.965Z,39.57
2022-08-03T11:20:27.715Z,38.78
2022-08-03T11:22:53.944Z,39.56
2022-08-03T11:25:54.249Z,39.77
2022-08-03T11:28:06.465Z,38.99
2022-08-03T11:30:33.057Z,38.95
2022-08-03T11:32:59.334Z,38.70
2022-08-03T11:35:25.580Z,38.58
2022-08-03T11:38:03.083Z,38.63
2022-08-03T11:40:31.662Z,39.64
2022-08-03T11:42:57.910Z,41.16
2022-08-03T11:45:24.185Z,41.10
2022-08-03T11:47:51.471Z,40.19
2022-08-03T11:50:17.911Z,39.35
2022-08-03T11:52:44.152Z,39.43
2022-08-03T11:55:10.390Z,39.72
2022-08-03T11:59:01.746Z,40.98
2022-08-03T12:00:22.918Z,41.31
2022-08-03T12:02:49.200Z,41.00
2022-08-03T12:05:15.550Z,40.04
2022-08-03T12:08:03.032Z,39.72
2022-08-03T12:10:28.255Z,39.61
2022-08-03T12:12:55.161Z,40.04
2022-08-03T12:15:21.410Z,39.15
2022-08-03T12:17:47.685Z,39.13
2022-08-03T12:20:13.935Z,38.32
2022-08-03T12:22:40.178Z,38.54
2022-08-03T12:25:06.423Z,37.35
2022-08-03T12:27:32.628Z,37.92
2022-08-03T12:29:59.255Z,38.10
2022-08-03T12:32:25.638Z,38.46
2022-08-03T12:34:51.905Z,38.18
2022-08-03T12:37:22.518Z,38.74
2022-08-03T12:40:01.722Z,37.90
2022-08-03T12:42:31.836Z,37.81
2022-08-03T12:44:58.155Z,38.46
2022-08-03T12:47:24.452Z,36.99
2022-08-03T12:49:50.881Z,37.42
2022-08-03T12:52:17.216Z,36.86
2022-08-03T12:54:43.548Z,37.58
2022-08-03T12:57:09.924Z,36.71
2022-08-03T12:59:40.421Z,35.51
2022-08-03T13:02:09.370Z,36.83
2022-08-03T13:04:36.378Z,36.87
2022-08-03T13:07:03.404Z,35.54
2022-08-03T13:09:29.904Z,36.24
2022-08-03T13:12:02.211Z,35.36
2022-08-03T13:14:28.955Z,35.25
2022-08-03T13:16:55.348Z,35.93
2022-08-03T13:19:21.715Z,36.45
2022-08-03T13:22:01.303Z,34.65
2022-08-03T13:24:31.664Z,34.49
2022-08-03T13:26:58.269Z,34.67
2022-08-03T13:29:24.903Z,33.70
2022-08-03T13:31:51.408Z,33.04
2022-08-03T13:34:22.281Z,32.93
2022-08-03T13:39:57.933Z,32.40
2022-08-03T13:42:22.414Z,32.36
2022-08-03T13:44:48.973Z,33.75
2022-08-03T13:47:15.255Z,31.40
2022-08-03T13:49:41.494Z,31.36
2022-08-03T13:52:07.724Z,31.04
2022-08-03T13:54:33.959Z,31.76
2022-08-03T13:58:05.097Z,31.28
2022-08-03T13:59:46.429Z,32.51
2022-08-03T14:02:12.722Z,31.40
2022-08-03T14:04:39.014Z,31.44
2022-08-03T14:07:05.241Z,31.88
2022-08-03T14:09:31.538Z,31.82
2022-08-03T14:12:06.833Z,31.18
2022-08-03T14:14:34.779Z,31.13
2022-08-03T14:17:01.178Z,30.76
2022-08-03T14:19:28.749Z,32.60
2022-08-03T14:22:01.789Z,30.61
2022-08-03T14:24:33.219Z,29.62
2022-08-03T14:27:07.163Z,29.25
2022-08-03T14:29:35.378Z,29.70
2022-08-03T14:32:11.994Z,29.54
2022-08-03T14:34:39.132Z,30.50
2022-08-03T14:37:05.400Z,29.52
2022-08-03T14:39:59.854Z,29.99
2022-08-03T14:42:18.108Z,31.07
2022-08-03T14:44:44.366Z,30.27
2022-08-03T14:47:10.612Z,30.16
2022-08-03T14:50:30.779Z,30.97
2022-08-03T14:52:23.177Z,29.49
2022-08-03T14:54:49.441Z,29.55
2022-08-03T14:57:15.677Z,29.29
2022-08-03T14:59:55.936Z,30.83
2022-08-03T15:02:24.078Z,31.32
2022-08-03T15:04:50.833Z,29.95
2022-08-03T15:07:17.202Z,29.70
2022-08-03T15:09:43.521Z,31.82
2022-08-03T15:12:09.753Z,31.17
2022-08-03T15:14:36.007Z,29.64
2022-08-03T15:17:04.194Z,30.15
2022-08-03T15:20:00.929Z,30.19
2022-08-03T15:22:16.625Z,30.27
2022-08-03T15:24:46.887Z,29.41
2022-08-03T15:27:13.084Z,29.63
2022-08-03T15:30:04.916Z,29.92
2022-08-03T15:32:25.568Z,29.06
2022-08-03T15:34:52.647Z,30.22
2022-08-03T15:37:18.878Z,30.07
2022-08-03T15:39:59.125Z,31.47
2022-08-03T15:42:26.477Z,29.76
2022-08-03T15:44:53.755Z,30.63
2022-08-03T15:47:20.954Z,29.58
2022-08-03T15:49:47.507Z,30.20
2022-08-03T15:52:13.753Z,29.84
2022-08-03T15:54:40.189Z,30.56
2022-08-03T15:57:06.548Z,31.88
2022-08-03T15:59:32.824Z,31.36
2022-08-03T16:01:59.108Z,32.30
2022-08-03T16:04:25.378Z,32.10
2022-08-03T16:06:51.629Z,31.06
2022-08-03T16:09:23.775Z,31.72
2022-08-03T16:12:04.073Z,30.28
2022-08-03T16:14:34.719Z,30.56
2022-08-03T16:17:06.842Z,31.60
2022-08-03T16:19:33.472Z,32.37
2022-08-03T16:21:59.950Z,32.81
2022-08-03T16:24:28.058Z,33.00
2022-08-03T16:26:54.530Z,30.70
2022-08-03T16:29:22.688Z,30.86
2022-08-03T16:31:51.326Z,31.46
2022-08-03T16:34:17.850Z,32.72
2022-08-03T16:36:45.362Z,32.35
2022-08-03T16:39:11.684Z,32.36
2022-08-03T16:41:53.622Z,30.03
2022-08-03T16:44:24.228Z,32.49
2022-08-03T16:46:53.373Z,31.06
2022-08-03T16:49:54.781Z,30.11
2022-08-03T16:52:07.121Z,31.12
2022-08-03T16:54:33.544Z,30.93
2022-08-03T16:57:01.083Z,29.68
2022-08-03T16:59:36.357Z,31.52
2022-08-03T17:02:06.688Z,31.70
2022-08-03T17:04:36.297Z,30.85
2022-08-03T17:07:06.762Z,31.15
2022-08-03T17:09:38.717Z,31.50
2022-08-03T17:12:05.277Z,30.94
2022-08-03T17:14:33.470Z,31.27
2022-08-03T17:16:59.736Z,30.65
2022-08-03T17:19:27.792Z,30.61
2022-08-03T17:21:55.456Z,31.89
2022-08-03T17:24:21.772Z,31.32
2022-08-03T17:26:51.739Z,31.24
2022-08-03T17:29:18.325Z,31.89
2022-08-03T17:31:44.613Z,31.42
2022-08-03T17:34:15.797Z,31.86
2022-08-03T17:37:03.412Z,31.93
2022-08-03T17:39:55.815Z,32.55
2022-08-03T17:42:30.405Z,32.70
2022-08-03T17:44:57.884Z,33.11
2022-08-03T17:47:40.976Z,33.55
2022-08-03T17:50:24.855Z,33.51
2022-08-03T17:52:52.271Z,33.81
2022-08-03T17:55:55.979Z,33.91
2022-08-03T17:58:07.357Z,34.08
2022-08-03T18:00:33.630Z,35.28
2022-08-03T18:03:00.865Z,35.35
2022-08-03T18:06:11.860Z,35.92
2022-08-03T18:08:15.736Z,35.08
2022-08-03T18:10:49.781Z,35.79
2022-08-03T18:13:16.397Z,35.53
2022-08-03T18:15:42.645Z,36.16
2022-08-03T18:18:10.851Z,36.63
2022-08-03T18:20:41.739Z,36.12
2022-08-03T18:23:08.735Z,38.33
2022-08-03T18:25:45.227Z,37.36
2022-08-03T18:28:23.962Z,38.57
2022-08-03T18:30:53.936Z,38.96
2022-08-03T18:34:19.087Z,38.39
2022-08-03T18:36:07.533Z,38.51
2022-08-03T18:38:35.426Z,39.79
2022-08-03T18:41:01.826Z,39.46
2022-08-03T18:43:47.567Z,40.65
2022-08-03T18:46:14.326Z,40.56
2022-08-03T18:48:40.577Z,41.15
2022-08-03T18:51:12.352Z,42.19
2022-08-03T18:54:04.075Z,42.24
2022-08-03T18:56:32.623Z,42.24
2022-08-03T18:59:02.245Z,42.43
2022-08-03T19:01:58.350Z,42.79
2022-08-03T19:04:15.255Z,42.49
2022-08-03T19:06:43.262Z,41.83
2022-08-03T19:09:10.389Z,42.04
2022-08-03T19:12:11.001Z,41.86
2022-08-03T19:14:22.889Z,42.59
2022-08-03T19:16:55.084Z,42.26
2022-08-03T19:19:21.299Z,43.47
2022-08-03T19:21:49.231Z,51.38
2022-08-03T19:24:15.749Z,55.65
2022-08-03T19:26:42.102Z,50.78
2022-08-03T19:29:11.372Z,49.58
2022-08-03T19:31:41.695Z,54.03
2022-08-03T19:34:25.564Z,56.83
2022-08-03T19:36:51.863Z,58.30
2022-08-03T19:39:18.194Z,63.04
2022-08-03T19:41:44.941Z,59.10
2022-08-03T19:44:19.803Z,58.70
2022-08-03T19:46:46.571Z,63.41
2022-08-03T19:49:15.006Z,63.80
2022-08-03T19:52:02.966Z,60.86
2022-08-03T19:54:32.320Z,67.67
2022-08-03T19:56:58.691Z,68.45
2022-08-03T19:59:26.421Z,65.52
2022-08-03T20:01:53.068Z,67.04
2022-08-03T20:04:21.272Z,63.24
2022-08-03T20:06:47.718Z,60.39
2022-08-03T20:09:16.366Z,65.37
2022-08-03T20:11:44.954Z,65.00
2022-08-03T20:14:11.611Z,67.28
2022-08-03T20:16:39.607Z,65.85
2022-08-03T20:19:14.369Z,62.74
2022-08-03T20:21:40.722Z,62.30
2022-08-03T20:24:23.311Z,64.75
2022-08-03T20:26:51.790Z,65.55
2022-08-03T20:29:19.651Z,67.65
2022-08-03T20:32:05.913Z,65.50
2022-08-03T20:34:32.714Z,66.30
2022-08-03T20:36:58.918Z,71.97
2022-08-03T20:39:26.261Z,69.71
2022-08-03T20:41:53.718Z,68.82
2022-08-03T20:44:25.715Z,71.76
2022-08-03T20:47:00.306Z,77.83
2022-08-03T20:49:27.079Z,73.69
2022-08-03T20:51:53.697Z,72.85
2022-08-03T20:54:29.705Z,74.30
2022-08-03T20:56:57.588Z,77.76
2022-08-03T20:59:24.238Z,77.71
2022-08-03T21:01:50.476Z,75.38
2022-08-03T21:04:20.865Z,79.67
2022-08-03T21:06:53.165Z,79.59
2022-08-03T21:09:19.883Z,84.66
2022-08-03T21:11:46.440Z,86.35
2022-08-03T21:14:12.757Z,87.65
2022-08-03T21:16:38.982Z,87.22
2022-08-03T21:19:05.249Z,87.40
2022-08-03T21:21:31.504Z,88.83
2022-08-03T21:23:57.752Z,91.23
2022-08-03T21:26:24.002Z,89.54
2022-08-03T21:28:50.257Z,90.08
2022-08-03T21:31:24.206Z,88.16
2022-08-03T21:33:52.065Z,87.76
2022-08-03T21:36:18.321Z,90.19
2022-08-03T21:38:44.541Z,91.06
2022-08-03T21:41:22.015Z,94.80
2022-08-03T21:43:48.243Z,100.00
2022-08-03T21:46:14.501Z,100.00
2022-08-03T21:48:40.727Z,95.27
2022-08-03T21:51:07.064Z,95.51
2022-08-03T21:54:02.962Z,95.81
2022-08-03T21:56:19.555Z,96.22
2022-08-03T21:58:45.919Z,96.82
2022-08-03T22:01:17.420Z,97.66
2022-08-03T22:03:53.185Z,98.33
2022-08-03T22:06:20.651Z,98.27
2022-08-03T22:08:48.726Z,99.46
2022-08-03T22:11:14.989Z,100.00
2022-08-03T22:13:42.989Z,100.00
2022-08-03T22:16:10.776Z,99.94
2022-08-03T22:18:37.015Z,100.00
2022-08-03T22:21:03.288Z,100.00
2022-08-03T22:23:29.883Z,100.00
2022-08-03T22:25:56.125Z,100.00
2022-08-03T22:28:22.342Z,100.00
2022-08-03T22:30:48.793Z,100.00
2022-08-03T22:33:15.015Z,100.00
2022-08-03T22:35:47.416Z,100.00
2022-08-03T22:38:14.332Z,100.00
2022-08-03T22:40:40.564Z,100.00
2022-08-03T22:43:06.789Z,100.00
2022-08-03T22:46:06.424Z,100.00
2022-08-03T22:48:19.229Z,100.00
2022-08-03T22:50:45.475Z,100.00
2022-08-03T22:53:11.762Z,100.00
2022-08-03T22:55:38.021Z,100.00
2022-08-03T22:58:04.254Z,100.00
2022-08-03T23:00:30.537Z,100.00
2022-08-03T23:02:56.808Z,100.00
2022-08-03T23:06:02.460Z,100.00
2022-08-03T23:08:09.324Z,100.00
2022-08-03T23:10:35.552Z,100.00
2022-08-03T23:13:01.765Z,100.00
2022-08-03T23:15:28.011Z,100.00
2022-08-03T23:17:58.166Z,100.00
2022-08-03T23:20:26.609Z,100.00
2022-08-03T23:22:53.159Z,100.00
2022-08-03T23:25:19.894Z,100.00
2022-08-03T23:27:46.111Z,100.00
2022-08-03T23:30:12.340Z,100.00
2022-08-03T23:32:38.557Z,100.00
2022-08-03T23:35:04.800Z,100.00
2022-08-03T23:37:31.045Z,100.00
2022-08-03T23:39:57.305Z,100.00
2022-08-03T23:42:23.546Z,100.00
2022-08-03T23:44:49.795Z,100.00
2022-08-03T23:47:15.999Z,100.00
2022-08-03T23:49:42.245Z,100.00
2022-08-03T23:52:08.463Z,100.00
2022-08-03T23:54:34.700Z,100.00
2022-08-03T23:57:00.919Z,100.00
2022-08-03T23:59:27.173Z,100.00
